createdAt,value
2024-03-12T00:01:09.853Z,25.33
2024-03-12T00:03:43.660Z,22.60
2024-03-12T00:06:11.518Z,22.47
2024-03-12T00:08:41.566Z,22.77
2024-03-12T00:11:10.541Z,22.50
2024-03-12T00:13:38.167Z,22.57
2024-03-12T00:16:06.830Z,21.80
2024-03-12T00:18:35.163Z,21.10
2024-03-12T00:21:02.911Z,22.23
2024-03-12T00:23:31.090Z,20.17
2024-03-12T00:25:59.976Z,20.13
2024-03-12T00:28:27.584Z,17.87
2024-03-12T00:30:56.164Z,18.17
2024-03-12T00:33:23.793Z,18.97
2024-03-12T00:35:52.367Z,15.80
2024-03-12T00:38:20.228Z,15.13
2024-03-12T00:40:49.115Z,15.33
2024-03-12T00:43:18.842Z,16.30
2024-03-12T00:45:47.387Z,15.13
2024-03-12T00:48:15.478Z,15.00
2024-03-12T00:50:46.391Z,14.20
2024-03-12T00:53:15.248Z,13.20
2024-03-12T00:55:43.718Z,13.20
2024-03-12T00:58:13.497Z,12.47
2024-03-12T01:00:43.086Z,10.70
2024-03-12T01:03:12.839Z,12.73
2024-03-12T01:05:40.932Z,11.90
2024-03-12T01:08:10.189Z,12.67
2024-03-12T01:10:38.231Z,11.53
2024-03-12T01:13:10.217Z,12.97
2024-03-12T01:15:38.482Z,12.87
2024-03-12T01:18:09.536Z,13.10
2024-03-12T01:20:37.847Z,13.93
2024-03-12T01:23:07.506Z,13.10
2024-03-12T01:25:36.958Z,12.90
2024-03-12T01:28:07.262Z,13.43
2024-03-12T01:30:36.576Z,13.03
2024-03-12T01:33:06.660Z,12.43
2024-03-12T01:35:39.704Z,12.50
2024-03-12T01:38:09.795Z,12.33
2024-03-12T01:40:37.510Z,12.57
2024-03-12T01:43:07.780Z,11.67
2024-03-12T01:45:36.159Z,11.13
2024-03-12T01:48:08.066Z,10.77
2024-03-12T01:50:38.700Z,10.47
2024-03-12T01:53:07.477Z,9.30
2024-03-12T01:55:38.680Z,9.73
2024-03-12T01:58:06.665Z,8.43
2024-03-12T02:00:35.128Z,9.50
2024-03-12T02:03:03.372Z,8.47
2024-03-12T02:05:31.017Z,7.73
2024-03-12T02:08:00.245Z,7.93
2024-03-12T02:10:27.897Z,8.50
2024-03-12T02:12:55.584Z,8.13
2024-03-12T02:15:23.415Z,8.27
2024-03-12T02:17:52.924Z,8.20
2024-03-12T02:20:22.766Z,8.80
2024-03-12T02:22:54.289Z,7.63
2024-03-12T02:25:24.287Z,7.13
2024-03-12T02:27:52.542Z,8.00
2024-03-12T02:30:20.704Z,7.73
2024-03-12T02:32:49.406Z,7.37
2024-03-12T02:35:18.033Z,7.90
2024-03-12T02:37:46.642Z,7.80
2024-03-12T02:40:15.759Z,7.77
2024-03-12T02:42:46.433Z,8.00
2024-03-12T02:45:16.327Z,7.17
2024-03-12T02:47:45.757Z,7.53
2024-03-12T02:50:13.670Z,7.63
2024-03-12T02:52:42.910Z,8.20
2024-03-12T02:55:10.803Z,7.83
2024-03-12T02:57:38.714Z,6.73
2024-03-12T03:00:12.686Z,7.27
2024-03-12T03:02:40.966Z,7.30
2024-03-12T03:05:11.025Z,7.70
2024-03-12T03:07:38.946Z,6.30
2024-03-12T03:10:07.403Z,6.50
2024-03-12T03:12:35.147Z,6.47
2024-03-12T03:15:02.850Z,6.13
2024-03-12T03:17:31.729Z,6.30
2024-03-12T03:19:59.279Z,6.10
2024-03-12T03:22:26.823Z,5.50
2024-03-12T03:24:54.795Z,5.73
2024-03-12T03:27:22.353Z,5.93
2024-03-12T03:29:49.917Z,6.37
2024-03-12T03:32:17.536Z,5.70
2024-03-12T03:34:46.436Z,5.80
2024-03-12T03:37:15.088Z,6.87
2024-03-12T03:39:42.753Z,5.97
2024-03-12T03:42:10.418Z,6.40
2024-03-12T03:44:38.020Z,6.17
2024-03-12T03:47:06.494Z,6.53
2024-03-12T03:49:34.111Z,5.50
2024-03-12T03:52:03.144Z,5.70
2024-03-12T03:54:30.801Z,6.17
2024-03-12T03:56:58.375Z,5.80
2024-03-12T03:59:26.805Z,5.80
2024-03-12T04:01:56.349Z,5.77
2024-03-12T04:04:24.074Z,5.07
2024-03-12T04:06:54.978Z,5.40
2024-03-12T04:09:26.775Z,5.40
2024-03-12T04:11:54.649Z,5.53
2024-03-12T04:14:22.257Z,5.90
2024-03-12T04:16:49.776Z,5.90
2024-03-12T04:19:17.791Z,5.57
2024-03-12T04:21:45.892Z,5.73
2024-03-12T04:24:14.890Z,4.80
2024-03-12T04:26:46.414Z,5.50
2024-03-12T04:29:14.065Z,5.70
2024-03-12T04:31:41.723Z,5.07
2024-03-12T04:34:10.294Z,5.53
2024-03-12T04:36:38.342Z,5.20
2024-03-12T04:39:31.324Z,5.27
2024-03-12T04:42:06.197Z,4.80
2024-03-12T04:44:34.723Z,5.70
2024-03-12T04:47:02.941Z,5.13
2024-03-12T04:49:31.068Z,5.50
2024-03-12T04:51:58.802Z,5.37
2024-03-12T04:54:26.898Z,5.60
2024-03-12T04:56:54.501Z,5.20
2024-03-12T04:59:23.389Z,5.30
2024-03-12T05:01:51.126Z,5.23
2024-03-12T05:04:23.076Z,5.60
2024-03-12T05:06:51.715Z,6.10
2024-03-12T05:09:19.696Z,5.53
2024-03-12T05:11:48.763Z,5.63
2024-03-12T05:14:16.501Z,5.63
2024-03-12T05:16:45.432Z,5.70
2024-03-12T05:19:13.300Z,5.70
2024-03-12T05:21:41.235Z,5.87
2024-03-12T05:24:08.889Z,5.83
2024-03-12T05:26:44.988Z,6.13
2024-03-12T05:29:12.781Z,6.10
2024-03-12T05:31:40.418Z,6.50
2024-03-12T05:34:17.171Z,6.40
2024-03-12T05:36:49.411Z,6.30
2024-03-12T05:39:27.706Z,7.50
2024-03-12T05:42:09.508Z,6.13
2024-03-12T05:44:55.368Z,6.57
2024-03-12T05:47:44.270Z,6.20
2024-03-12T05:50:18.209Z,6.30
2024-03-12T05:52:47.283Z,8.37
2024-03-12T05:55:16.517Z,7.87
2024-03-12T05:57:45.797Z,8.83
2024-03-12T06:00:15.303Z,8.83
2024-03-12T06:02:43.149Z,9.43
2024-03-12T06:05:13.785Z,8.30
2024-03-12T06:07:43.530Z,7.60
2024-03-12T06:10:12.377Z,7.57
2024-03-12T06:12:40.137Z,8.47
2024-03-12T06:15:08.652Z,9.13
2024-03-12T06:17:37.886Z,8.77
2024-03-12T06:20:10.131Z,8.60
2024-03-12T06:22:39.128Z,11.27
2024-03-12T06:25:10.405Z,13.53
2024-03-12T06:27:40.075Z,13.53
2024-03-12T06:30:09.362Z,16.87
2024-03-12T06:32:36.971Z,15.50
2024-03-12T06:35:05.087Z,12.43
2024-03-12T06:37:32.669Z,11.30
2024-03-12T06:40:00.546Z,16.13
2024-03-12T06:42:30.998Z,12.83
2024-03-12T06:45:01.647Z,11.53
2024-03-12T06:47:30.180Z,15.23
2024-03-12T06:49:59.775Z,16.27
2024-03-12T06:52:27.799Z,11.57
2024-03-12T06:54:55.485Z,11.40
2024-03-12T06:57:23.499Z,11.40
2024-03-12T06:59:52.675Z,10.23
2024-03-12T07:02:20.249Z,8.53
2024-03-12T07:04:49.706Z,9.20
2024-03-12T07:07:20.254Z,9.23
2024-03-12T07:09:48.199Z,9.53
2024-03-12T07:12:17.428Z,9.90
2024-03-12T07:14:46.940Z,12.43
2024-03-12T07:17:17.090Z,11.10
2024-03-12T07:19:44.820Z,12.57
2024-03-12T07:22:12.823Z,11.77
2024-03-12T07:24:40.816Z,8.97
2024-03-12T07:27:10.291Z,9.30
2024-03-12T07:29:38.356Z,9.47
2024-03-12T07:32:06.655Z,10.03
2024-03-12T07:34:37.654Z,11.47
2024-03-12T07:37:06.061Z,10.30
2024-03-12T07:39:35.708Z,11.17
2024-03-12T07:42:09.819Z,11.53
2024-03-12T07:44:38.423Z,10.63
2024-03-12T07:47:06.312Z,9.90
2024-03-12T07:49:37.634Z,10.53
2024-03-12T07:52:06.750Z,10.67
2024-03-12T07:54:35.173Z,9.23
2024-03-12T07:57:03.161Z,8.77
2024-03-12T07:59:31.484Z,10.33
2024-03-12T08:01:59.927Z,8.37
2024-03-12T08:04:28.080Z,8.63
2024-03-12T08:06:57.870Z,8.60
2024-03-12T08:09:25.463Z,10.00
2024-03-12T08:11:53.274Z,10.07
2024-03-12T08:14:20.877Z,10.10
2024-03-12T08:16:50.325Z,10.13
2024-03-12T08:19:18.480Z,10.27
2024-03-12T08:21:46.201Z,10.17
2024-03-12T08:24:15.741Z,10.70
2024-03-12T08:26:43.732Z,10.43
2024-03-12T08:29:12.938Z,11.67
2024-03-12T08:31:47.494Z,12.43
2024-03-12T08:34:19.419Z,12.57
2024-03-12T08:36:48.202Z,13.17
2024-03-12T08:39:17.222Z,13.57
2024-03-12T08:41:45.281Z,14.93
2024-03-12T08:44:15.303Z,13.47
2024-03-12T08:46:42.973Z,14.23
2024-03-12T08:49:12.235Z,14.37
2024-03-12T08:51:41.589Z,14.20
2024-03-12T08:54:10.051Z,13.93
2024-03-12T08:56:40.375Z,13.97
2024-03-12T08:59:10.001Z,14.43
2024-03-12T09:01:38.023Z,13.07
2024-03-12T09:04:08.761Z,14.97
2024-03-12T09:06:36.676Z,15.30
2024-03-12T09:09:06.014Z,14.90
2024-03-12T09:11:34.359Z,14.87
2024-03-12T09:14:03.354Z,15.90
2024-03-12T09:16:31.111Z,15.73
2024-03-12T09:18:58.729Z,16.10
2024-03-12T09:21:26.855Z,16.30
2024-03-12T09:24:01.014Z,15.20
2024-03-12T09:26:30.754Z,16.47
2024-03-12T09:28:58.722Z,16.57
2024-03-12T09:31:28.551Z,16.23
2024-03-12T09:33:56.632Z,17.43
2024-03-12T09:36:25.673Z,15.90
2024-03-12T09:38:54.613Z,15.30
2024-03-12T09:41:25.741Z,15.67
2024-03-12T09:43:54.803Z,16.63
2024-03-12T09:46:23.738Z,16.40
2024-03-12T09:48:53.746Z,16.30
2024-03-12T09:51:22.686Z,17.03
2024-03-12T09:53:52.247Z,16.20
2024-03-12T09:56:21.791Z,16.93
2024-03-12T09:58:49.932Z,17.57
2024-03-12T10:01:17.903Z,17.43
2024-03-12T10:03:47.409Z,17.03
2024-03-12T10:06:17.815Z,15.93
2024-03-12T10:08:46.164Z,16.63
2024-03-12T10:11:20.906Z,17.60
2024-03-12T10:13:55.154Z,19.47
2024-03-12T10:16:25.912Z,18.93
2024-03-12T10:19:08.094Z,21.87
2024-03-12T10:21:37.554Z,22.40
2024-03-12T10:24:15.972Z,20.97
2024-03-12T10:26:45.459Z,24.10
2024-03-12T10:29:14.707Z,24.27
2024-03-12T10:31:45.109Z,24.40
2024-03-12T10:34:14.822Z,22.37
2024-03-12T10:36:44.992Z,22.83
2024-03-12T10:39:14.496Z,24.13
2024-03-12T10:41:44.302Z,24.63
2024-03-12T10:44:13.171Z,26.33
2024-03-12T10:46:42.433Z,27.20
2024-03-12T10:49:11.384Z,24.63
2024-03-12T10:51:42.401Z,28.33
2024-03-12T10:54:15.032Z,30.43
2024-03-12T10:56:43.551Z,33.53
2024-03-12T10:59:12.219Z,32.67
2024-03-12T11:01:41.794Z,35.40
2024-03-12T11:04:11.382Z,33.50
2024-03-12T11:06:40.654Z,33.60
2024-03-12T11:09:09.604Z,33.17
2024-03-12T11:11:39.673Z,31.93
2024-03-12T11:14:08.782Z,32.00
2024-03-12T11:16:37.707Z,31.33
2024-03-12T11:19:22.156Z,32.80
2024-03-12T11:21:51.000Z,32.07
2024-03-12T11:24:28.917Z,33.57
2024-03-12T11:27:00.920Z,33.73
2024-03-12T11:30:15.794Z,36.77
2024-03-12T11:32:44.979Z,41.07
2024-03-12T11:35:37.162Z,36.87
2024-03-12T11:38:10.624Z,37.50
2024-03-12T11:40:49.089Z,38.10
2024-03-12T11:46:10.227Z,37.60
2024-03-12T11:48:39.898Z,36.30
2024-03-12T11:51:13.103Z,33.53
2024-03-12T11:53:42.584Z,29.50
2024-03-12T11:56:20.172Z,27.70
2024-03-12T11:58:57.725Z,29.37
2024-03-12T12:01:34.985Z,26.50
2024-03-12T12:04:04.640Z,26.10
2024-03-12T12:06:33.599Z,27.80
2024-03-12T12:09:06.362Z,28.13
2024-03-12T12:11:35.756Z,28.90
2024-03-12T12:14:05.553Z,27.93
2024-03-12T12:16:34.581Z,27.40
2024-03-12T12:19:07.617Z,27.30
2024-03-12T12:21:36.052Z,27.70
2024-03-12T12:24:04.880Z,28.10
2024-03-12T12:26:34.763Z,27.23
2024-03-12T12:29:04.740Z,27.80
2024-03-12T12:31:36.980Z,27.77
2024-03-12T12:34:07.701Z,29.63
2024-03-12T12:36:39.648Z,30.17
2024-03-12T12:41:43.541Z,29.83
2024-03-12T12:44:16.423Z,30.37
2024-03-12T12:46:46.592Z,29.10
2024-03-12T12:49:15.841Z,27.60
2024-03-12T12:51:43.793Z,28.03
2024-03-12T12:54:11.543Z,28.23
2024-03-12T12:56:43.080Z,29.00
2024-03-12T12:59:11.143Z,25.87
2024-03-12T13:01:39.858Z,26.30
2024-03-12T13:04:23.276Z,23.53
2024-03-12T13:06:52.509Z,24.37
2024-03-12T13:09:33.095Z,23.90
2024-03-12T13:12:01.706Z,24.73
2024-03-12T13:14:29.625Z,23.67
2024-03-12T13:16:59.708Z,22.80
2024-03-12T13:19:29.323Z,23.90
2024-03-12T13:21:59.109Z,23.43
2024-03-12T13:24:26.804Z,22.57
2024-03-12T13:26:54.364Z,20.87
2024-03-12T13:29:22.176Z,22.40
2024-03-12T13:31:49.945Z,23.03
2024-03-12T13:34:17.601Z,21.50
2024-03-12T13:36:48.857Z,23.27
2024-03-12T13:39:16.882Z,22.07
2024-03-12T13:41:44.911Z,21.70
2024-03-12T13:44:12.849Z,22.60
2024-03-12T13:46:44.063Z,21.27
2024-03-12T13:49:14.252Z,21.73
2024-03-12T13:51:44.642Z,21.47
2024-03-12T13:54:13.738Z,22.97
2024-03-12T13:56:41.503Z,20.80
2024-03-12T13:59:09.263Z,22.40
2024-03-12T14:01:38.035Z,22.90
2024-03-12T14:04:07.374Z,23.37
2024-03-12T14:06:35.849Z,23.17
2024-03-12T14:09:05.943Z,21.93
2024-03-12T14:11:34.989Z,23.87
2024-03-12T14:14:03.618Z,21.87
2024-03-12T14:16:31.266Z,20.60
2024-03-12T14:18:59.138Z,20.97
2024-03-12T14:21:27.858Z,22.13
2024-03-12T14:23:56.425Z,20.57
2024-03-12T14:26:25.394Z,21.43
2024-03-12T14:28:55.220Z,22.10
2024-03-12T14:31:23.033Z,22.97
2024-03-12T14:33:50.727Z,22.40
2024-03-12T14:36:18.494Z,24.20
2024-03-12T14:38:47.009Z,24.30
2024-03-12T14:41:15.634Z,22.90
2024-03-12T14:43:43.189Z,24.03
2024-03-12T14:46:13.426Z,24.03
2024-03-12T14:48:41.147Z,22.97
2024-03-12T14:51:08.712Z,23.00
2024-03-12T14:53:36.424Z,24.27
2024-03-12T14:56:05.173Z,24.87
2024-03-12T14:58:33.148Z,24.60
2024-03-12T15:01:00.943Z,24.27
2024-03-12T15:03:30.377Z,23.47
2024-03-12T15:05:58.546Z,23.47
2024-03-12T15:08:26.163Z,23.03
2024-03-12T15:14:34.447Z,23.37
2024-03-12T15:17:02.113Z,22.93
2024-03-12T15:19:31.187Z,23.00
2024-03-12T15:22:00.548Z,19.90
2024-03-12T15:24:28.247Z,23.20
2024-03-12T15:26:58.675Z,21.67
2024-03-12T15:29:29.232Z,23.70
2024-03-12T15:31:57.113Z,22.33
2024-03-12T15:34:24.745Z,22.30
2024-03-12T15:36:53.940Z,23.27
2024-03-12T15:39:23.776Z,21.63
2024-03-12T15:41:51.526Z,23.47
2024-03-12T15:44:19.804Z,23.27
2024-03-12T15:46:48.722Z,23.37
2024-03-12T15:49:17.819Z,21.07
2024-03-12T15:51:46.239Z,24.30
2024-03-12T15:54:15.954Z,23.43
2024-03-12T15:56:45.298Z,23.00
2024-03-12T15:59:15.401Z,22.27
2024-03-12T16:01:45.209Z,22.00
2024-03-12T16:04:14.382Z,23.97
2024-03-12T16:06:43.086Z,22.97
2024-03-12T16:09:11.401Z,23.53
2024-03-12T16:11:40.737Z,21.90
2024-03-12T16:14:11.568Z,23.80
2024-03-12T16:16:39.297Z,20.83
2024-03-12T16:19:08.186Z,22.27
2024-03-12T16:21:36.063Z,21.70
2024-03-12T16:24:05.617Z,22.90
2024-03-12T16:26:33.266Z,22.50
2024-03-12T16:29:02.217Z,23.73
2024-03-12T16:31:29.852Z,23.73
2024-03-12T16:33:57.451Z,24.17
2024-03-12T16:36:26.006Z,22.23
2024-03-12T16:38:53.809Z,23.03
2024-03-12T16:41:21.357Z,23.53
2024-03-12T16:43:49.922Z,22.90
2024-03-12T16:46:19.428Z,23.40
2024-03-12T16:48:47.537Z,22.83
2024-03-12T16:51:16.204Z,24.03
2024-03-12T16:53:43.961Z,23.93
2024-03-12T16:56:24.919Z,24.23
2024-03-12T16:58:53.920Z,26.13
2024-03-12T17:01:23.562Z,25.30
2024-03-12T17:03:52.365Z,26.73
2024-03-12T17:06:21.564Z,26.53
2024-03-12T17:08:49.849Z,26.60
2024-03-12T17:11:17.813Z,27.43
2024-03-12T17:13:45.772Z,28.83
2024-03-12T17:16:15.953Z,28.23
2024-03-12T17:18:45.059Z,31.17
2024-03-12T17:21:13.203Z,27.27
2024-03-12T17:23:43.760Z,26.47
2024-03-12T17:26:15.975Z,27.83
2024-03-12T17:28:44.107Z,30.80
2024-03-12T17:31:12.258Z,42.07
2024-03-12T17:33:40.550Z,35.07
2024-03-12T17:36:12.782Z,28.53
2024-03-12T17:38:40.978Z,27.40
2024-03-12T17:41:09.421Z,27.10
2024-03-12T17:43:37.774Z,28.53
2024-03-12T17:46:07.197Z,27.93
2024-03-12T17:48:37.809Z,27.97
2024-03-12T17:51:05.897Z,27.53
2024-03-12T17:53:38.329Z,26.30
2024-03-12T17:56:11.452Z,26.67
2024-03-12T17:58:39.882Z,27.37
2024-03-12T18:01:10.354Z,25.90
2024-03-12T18:03:39.035Z,25.83
2024-03-12T18:06:08.033Z,28.33
2024-03-12T18:08:40.636Z,25.57
2024-03-12T18:11:12.636Z,27.43
2024-03-12T18:13:41.036Z,29.67
2024-03-12T18:16:08.668Z,31.13
2024-03-12T18:18:36.447Z,32.50
2024-03-12T18:21:05.126Z,32.00
2024-03-12T18:23:32.801Z,28.47
2024-03-12T18:26:01.779Z,30.87
2024-03-12T18:28:29.659Z,24.73
2024-03-12T18:30:58.100Z,20.93
2024-03-12T18:33:27.444Z,18.50
2024-03-12T18:35:56.282Z,18.97
2024-03-12T18:38:25.774Z,20.50
2024-03-12T18:40:53.413Z,21.53
2024-03-12T18:43:22.806Z,20.33
2024-03-12T18:45:51.417Z,19.03
2024-03-12T18:48:19.468Z,17.00
2024-03-12T18:50:47.386Z,16.23
2024-03-12T18:53:15.448Z,17.47
2024-03-12T18:55:43.499Z,16.37
2024-03-12T18:58:11.696Z,15.40
2024-03-12T19:00:41.928Z,20.03
2024-03-12T19:03:15.396Z,16.30
2024-03-12T19:05:43.572Z,16.50
2024-03-12T19:08:12.311Z,20.47
2024-03-12T19:10:40.291Z,19.43
2024-03-12T19:13:11.037Z,16.43
2024-03-12T19:15:44.151Z,18.27
2024-03-12T19:18:18.346Z,18.07
2024-03-12T19:20:46.471Z,18.20
2024-03-12T19:23:14.474Z,16.03
2024-03-12T19:25:42.396Z,17.13
2024-03-12T19:28:10.109Z,17.27
2024-03-12T19:30:38.162Z,18.03
2024-03-12T19:33:09.587Z,18.57
2024-03-12T19:35:37.689Z,19.13
2024-03-12T19:38:06.749Z,19.70
2024-03-12T19:40:35.258Z,19.40
2024-03-12T19:43:04.136Z,21.27
2024-03-12T19:45:32.190Z,20.03
2024-03-12T19:48:01.515Z,21.10
2024-03-12T19:50:31.643Z,19.63
2024-03-12T19:52:59.531Z,19.30
2024-03-12T19:55:30.461Z,20.90
2024-03-12T19:58:00.088Z,19.13
2024-03-12T20:04:15.219Z,18.63
2024-03-12T20:06:45.318Z,19.07
2024-03-12T20:09:23.340Z,18.90
2024-03-12T20:11:52.418Z,19.40
2024-03-12T20:14:24.776Z,19.67
2024-03-12T20:16:52.596Z,18.83
2024-03-12T20:19:20.324Z,18.20
2024-03-12T20:21:50.126Z,19.13
2024-03-12T20:24:19.742Z,19.53
2024-03-12T20:26:47.720Z,18.47
2024-03-12T20:29:15.624Z,20.27
2024-03-12T20:31:43.533Z,20.83
2024-03-12T20:34:12.962Z,18.93
2024-03-12T20:36:46.154Z,20.43
2024-03-12T20:39:16.376Z,19.63
2024-03-12T20:41:43.208Z,19.57
2024-03-12T20:44:10.849Z,20.63
2024-03-12T20:46:38.552Z,19.70
2024-03-12T20:49:06.593Z,19.70
2024-03-12T20:51:34.163Z,20.27
2024-03-12T20:54:04.157Z,19.50
2024-03-12T20:56:33.555Z,19.30
2024-03-12T20:59:01.757Z,19.47
2024-03-12T21:01:29.466Z,19.13
2024-03-12T21:03:57.071Z,21.70
2024-03-12T21:06:25.668Z,18.53
2024-03-12T21:08:53.337Z,20.77
2024-03-12T21:11:22.082Z,18.67
2024-03-12T21:13:52.346Z,20.17
2024-03-12T21:16:19.942Z,19.57
2024-03-12T21:18:48.688Z,18.70
2024-03-12T21:21:17.511Z,20.60
2024-03-12T21:23:46.759Z,19.73
2024-03-12T21:26:20.642Z,19.23
2024-03-12T21:28:48.277Z,20.40
2024-03-12T21:31:17.383Z,18.90
2024-03-12T21:33:45.142Z,20.07
2024-03-12T21:36:15.806Z,21.10
2024-03-12T21:38:43.923Z,19.87
2024-03-12T21:41:14.045Z,20.33
2024-03-12T21:43:41.619Z,19.87
2024-03-12T21:46:09.202Z,20.10
2024-03-12T21:48:38.126Z,21.10
2024-03-12T21:51:06.549Z,20.63
2024-03-12T21:53:34.148Z,20.90
2024-03-12T21:56:02.299Z,20.20
2024-03-12T21:58:30.929Z,21.37
2024-03-12T22:00:59.735Z,19.83
2024-03-12T22:03:27.430Z,19.70
2024-03-12T22:05:56.553Z,20.43
2024-03-12T22:08:24.668Z,19.90
2024-03-12T22:10:52.217Z,20.60
2024-03-12T22:13:28.101Z,18.87
2024-03-12T22:15:59.485Z,20.13
2024-03-12T22:18:27.163Z,19.87
2024-03-12T22:20:56.209Z,19.93
2024-03-12T22:23:29.012Z,18.87
2024-03-12T22:25:57.209Z,19.67
2024-03-12T22:28:24.991Z,20.40
2024-03-12T22:30:53.503Z,19.77
2024-03-12T22:33:21.297Z,22.87
2024-03-12T22:35:48.883Z,20.47
2024-03-12T22:38:19.380Z,21.87
2024-03-12T22:40:47.983Z,19.77
2024-03-12T22:43:16.168Z,21.50
2024-03-12T22:45:45.632Z,19.27
2024-03-12T22:48:13.878Z,20.80
2024-03-12T22:50:42.517Z,21.00
2024-03-12T22:53:10.493Z,20.40
2024-03-12T22:55:40.128Z,18.37
2024-03-12T22:58:09.249Z,20.37
2024-03-12T23:00:47.501Z,18.43
2024-03-12T23:03:15.460Z,19.80
2024-03-12T23:05:43.766Z,20.13
2024-03-12T23:08:13.681Z,19.87
2024-03-12T23:10:45.011Z,19.33
2024-03-12T23:13:14.838Z,19.00
2024-03-12T23:15:43.843Z,19.33
2024-03-12T23:18:12.919Z,20.80
2024-03-12T23:20:41.912Z,19.37
2024-03-12T23:23:09.862Z,19.40
2024-03-12T23:25:38.143Z,18.83
2024-03-12T23:28:07.380Z,19.17
2024-03-12T23:30:35.001Z,20.10
2024-03-12T23:33:03.142Z,19.63
2024-03-12T23:35:30.924Z,19.53
2024-03-12T23:37:58.971Z,19.10
2024-03-12T23:40:26.910Z,17.67
2024-03-12T23:42:55.051Z,18.17
2024-03-12T23:45:24.757Z,18.90
2024-03-12T23:47:52.755Z,19.37
2024-03-12T23:50:20.792Z,19.50
2024-03-12T23:52:49.696Z,18.60
2024-03-12T23:55:17.699Z,17.77
2024-03-12T23:57:45.563Z,18.97
